sensor_id;sensor_type;location;lat;lon;timestamp;P1;durP1;ratioP1;P2;durP2;ratioP2
56242;SDS011;42155;53.096;23.226;2023-09-30T00:00:48;18.70;;;10.55;;
56242;SDS011;42155;53.096;23.226;2023-09-30T00:02:49;20.48;;;10.85;;
56242;SDS011;42155;53.096;23.226;2023-09-30T00:04:50;18.45;;;9.57;;
56242;SDS011;42155;53.096;23.226;2023-09-30T00:06:50;15.32;;;10.23;;
56242;SDS011;42155;53.096;23.226;2023-09-30T00:08:50;18.17;;;10.10;;
56242;SDS011;42155;53.096;23.226;2023-09-30T00:10:51;18.52;;;10.68;;
56242;SDS011;42155;53.096;23.226;2023-09-30T00:12:51;16.90;;;10.38;;
56242;SDS011;42155;53.096;23.226;2023-09-30T00:14:51;19.20;;;10.65;;
56242;SDS011;42155;53.096;23.226;2023-09-30T00:16:52;21.73;;;11.02;;
56242;SDS011;42155;53.096;23.226;2023-09-30T00:18:52;23.27;;;11.25;;
56242;SDS011;42155;53.096;23.226;2023-09-30T00:20:53;17.25;;;10.63;;
56242;SDS011;42155;53.096;23.226;2023-09-30T00:22:53;22.02;;;11.35;;
56242;SDS011;42155;53.096;23.226;2023-09-30T00:24:53;21.13;;;11.68;;
56242;SDS011;42155;53.096;23.226;2023-09-30T00:26:54;19.60;;;11.52;;
56242;SDS011;42155;53.096;23.226;2023-09-30T00:28:54;19.48;;;11.65;;
56242;SDS011;42155;53.096;23.226;2023-09-30T00:30:54;21.10;;;11.35;;
56242;SDS011;42155;53.096;23.226;2023-09-30T00:32:55;18.30;;;10.50;;
56242;SDS011;42155;53.096;23.226;2023-09-30T00:34:55;18.48;;;10.85;;
56242;SDS011;42155;53.096;23.226;2023-09-30T00:36:55;20.75;;;11.30;;
56242;SDS011;42155;53.096;23.226;2023-09-30T00:38:56;18.83;;;11.30;;
56242;SDS011;42155;53.096;23.226;2023-09-30T00:40:56;17.23;;;10.88;;
56242;SDS011;42155;53.096;23.226;2023-09-30T00:42:57;17.25;;;10.98;;
56242;SDS011;42155;53.096;23.226;2023-09-30T00:44:58;21.30;;;11.23;;
56242;SDS011;42155;53.096;23.226;2023-09-30T00:46:58;19.73;;;10.80;;
56242;SDS011;42155;53.096;23.226;2023-09-30T00:48:59;18.42;;;10.95;;
56242;SDS011;42155;53.096;23.226;2023-09-30T00:51:00;20.33;;;10.80;;
56242;SDS011;42155;53.096;23.226;2023-09-30T00:53:02;19.45;;;11.30;;
56242;SDS011;42155;53.096;23.226;2023-09-30T00:55:03;18.23;;;10.85;;
56242;SDS011;42155;53.096;23.226;2023-09-30T00:57:04;17.75;;;11.60;;
56242;SDS011;42155;53.096;23.226;2023-09-30T00:59:04;17.90;;;11.20;;
56242;SDS011;42155;53.096;23.226;2023-09-30T01:01:05;17.70;;;10.30;;
56242;SDS011;42155;53.096;23.226;2023-09-30T01:03:06;18.73;;;11.32;;
56242;SDS011;42155;53.096;23.226;2023-09-30T01:05:07;23.08;;;11.90;;
56242;SDS011;42155;53.096;23.226;2023-09-30T01:07:08;24.63;;;11.63;;
56242;SDS011;42155;53.096;23.226;2023-09-30T01:09:08;24.52;;;10.90;;
56242;SDS011;42155;53.096;23.226;2023-09-30T01:11:09;18.63;;;10.93;;
56242;SDS011;42155;53.096;23.226;2023-09-30T01:13:09;20.85;;;11.40;;
56242;SDS011;42155;53.096;23.226;2023-09-30T01:15:10;22.83;;;11.68;;
56242;SDS011;42155;53.096;23.226;2023-09-30T01:17:10;28.10;;;13.00;;
56242;SDS011;42155;53.096;23.226;2023-09-30T01:19:10;19.55;;;11.75;;
56242;SDS011;42155;53.096;23.226;2023-09-30T01:21:11;18.50;;;11.10;;
56242;SDS011;42155;53.096;23.226;2023-09-30T01:23:11;19.00;;;11.32;;
56242;SDS011;42155;53.096;23.226;2023-09-30T01:25:11;21.23;;;10.98;;
56242;SDS011;42155;53.096;23.226;2023-09-30T01:27:12;16.52;;;10.80;;
56242;SDS011;42155;53.096;23.226;2023-09-30T01:29:12;20.75;;;11.63;;
56242;SDS011;42155;53.096;23.226;2023-09-30T01:31:13;18.90;;;11.82;;
56242;SDS011;42155;53.096;23.226;2023-09-30T01:33:13;22.17;;;11.30;;
56242;SDS011;42155;53.096;23.226;2023-09-30T01:35:13;21.85;;;11.27;;
56242;SDS011;42155;53.096;23.226;2023-09-30T01:37:14;23.48;;;11.77;;
56242;SDS011;42155;53.096;23.226;2023-09-30T01:39:14;20.08;;;11.55;;
56242;SDS011;42155;53.096;23.226;2023-09-30T01:41:15;21.98;;;11.27;;
56242;SDS011;42155;53.096;23.226;2023-09-30T01:43:15;21.30;;;12.07;;
56242;SDS011;42155;53.096;23.226;2023-09-30T01:45:16;18.33;;;11.10;;
56242;SDS011;42155;53.096;23.226;2023-09-30T01:47:16;20.02;;;11.20;;
56242;SDS011;42155;53.096;23.226;2023-09-30T01:49:16;20.92;;;11.85;;
56242;SDS011;42155;53.096;23.226;2023-09-30T01:51:17;19.20;;;11.73;;
56242;SDS011;42155;53.096;23.226;2023-09-30T01:53:17;21.00;;;11.75;;
56242;SDS011;42155;53.096;23.226;2023-09-30T01:55:17;20.80;;;11.82;;
56242;SDS011;42155;53.096;23.226;2023-09-30T01:57:18;20.67;;;11.80;;
56242;SDS011;42155;53.096;23.226;2023-09-30T01:59:18;19.83;;;11.63;;
56242;SDS011;42155;53.096;23.226;2023-09-30T02:01:19;24.92;;;11.95;;
56242;SDS011;42155;53.096;23.226;2023-09-30T02:03:20;19.88;;;10.65;;
56242;SDS011;42155;53.096;23.226;2023-09-30T02:05:21;21.70;;;11.93;;
56242;SDS011;42155;53.096;23.226;2023-09-30T02:07:22;19.73;;;11.52;;
56242;SDS011;42155;53.096;23.226;2023-09-30T02:09:22;22.55;;;11.65;;
56242;SDS011;42155;53.096;23.226;2023-09-30T02:11:23;17.27;;;11.57;;
56242;SDS011;42155;53.096;23.226;2023-09-30T02:13:23;21.15;;;11.38;;
56242;SDS011;42155;53.096;23.226;2023-09-30T02:15:23;19.15;;;10.90;;
56242;SDS011;42155;53.096;23.226;2023-09-30T02:17:24;26.67;;;12.10;;
56242;SDS011;42155;53.096;23.226;2023-09-30T02:19:24;20.23;;;11.48;;
56242;SDS011;42155;53.096;23.226;2023-09-30T02:21:24;19.98;;;10.95;;
56242;SDS011;42155;53.096;23.226;2023-09-30T02:23:25;19.80;;;11.98;;
56242;SDS011;42155;53.096;23.226;2023-09-30T02:25:25;17.95;;;11.32;;
56242;SDS011;42155;53.096;23.226;2023-09-30T02:27:25;23.85;;;12.70;;
56242;SDS011;42155;53.096;23.226;2023-09-30T02:29:26;17.30;;;10.95;;
56242;SDS011;42155;53.096;23.226;2023-09-30T02:31:26;20.75;;;11.02;;
56242;SDS011;42155;53.096;23.226;2023-09-30T02:33:26;22.15;;;12.27;;
56242;SDS011;42155;53.096;23.226;2023-09-30T02:35:27;24.60;;;12.10;;
56242;SDS011;42155;53.096;23.226;2023-09-30T02:37:27;17.67;;;11.30;;
56242;SDS011;42155;53.096;23.226;2023-09-30T02:39:27;22.50;;;11.75;;
56242;SDS011;42155;53.096;23.226;2023-09-30T02:41:28;17.83;;;11.70;;
56242;SDS011;42155;53.096;23.226;2023-09-30T02:43:28;19.17;;;11.70;;
56242;SDS011;42155;53.096;23.226;2023-09-30T02:45:28;23.50;;;12.02;;
56242;SDS011;42155;53.096;23.226;2023-09-30T02:47:29;18.83;;;11.05;;
56242;SDS011;42155;53.096;23.226;2023-09-30T02:49:32;18.13;;;11.93;;
56242;SDS011;42155;53.096;23.226;2023-09-30T02:51:32;21.45;;;10.95;;
56242;SDS011;42155;53.096;23.226;2023-09-30T02:53:33;20.35;;;11.25;;
56242;SDS011;42155;53.096;23.226;2023-09-30T02:55:33;17.95;;;11.25;;
56242;SDS011;42155;53.096;23.226;2023-09-30T02:57:33;19.63;;;11.70;;
56242;SDS011;42155;53.096;23.226;2023-09-30T02:59:34;18.13;;;11.15;;
56242;SDS011;42155;53.096;23.226;2023-09-30T03:01:34;19.48;;;10.93;;
56242;SDS011;42155;53.096;23.226;2023-09-30T03:03:34;18.85;;;11.70;;
56242;SDS011;42155;53.096;23.226;2023-09-30T03:05:35;17.83;;;11.45;;
56242;SDS011;42155;53.096;23.226;2023-09-30T03:07:35;16.60;;;11.50;;
56242;SDS011;42155;53.096;23.226;2023-09-30T03:09:36;19.83;;;10.80;;
56242;SDS011;42155;53.096;23.226;2023-09-30T03:11:36;16.63;;;10.50;;
56242;SDS011;42155;53.096;23.226;2023-09-30T03:13:36;22.83;;;11.52;;
56242;SDS011;42155;53.096;23.226;2023-09-30T03:15:37;19.15;;;10.82;;
56242;SDS011;42155;53.096;23.226;2023-09-30T03:17:37;21.52;;;10.90;;
56242;SDS011;42155;53.096;23.226;2023-09-30T03:19:38;16.80;;;10.85;;
56242;SDS011;42155;53.096;23.226;2023-09-30T03:21:38;19.92;;;10.80;;
56242;SDS011;42155;53.096;23.226;2023-09-30T03:23:39;20.65;;;11.63;;
56242;SDS011;42155;53.096;23.226;2023-09-30T03:25:39;20.58;;;11.25;;
56242;SDS011;42155;53.096;23.226;2023-09-30T03:28:01;18.25;;;11.02;;
56242;SDS011;42155;53.096;23.226;2023-09-30T03:30:19;18.00;;;10.73;;
56242;SDS011;42155;53.096;23.226;2023-09-30T03:32:20;19.23;;;11.48;;
56242;SDS011;42155;53.096;23.226;2023-09-30T03:34:20;17.92;;;11.10;;
56242;SDS011;42155;53.096;23.226;2023-09-30T03:36:21;19.85;;;11.30;;
56242;SDS011;42155;53.096;23.226;2023-09-30T03:38:21;19.27;;;11.60;;
56242;SDS011;42155;53.096;23.226;2023-09-30T03:40:22;18.58;;;10.63;;
56242;SDS011;42155;53.096;23.226;2023-09-30T03:42:23;21.50;;;10.45;;
56242;SDS011;42155;53.096;23.226;2023-09-30T03:44:27;16.10;;;10.60;;
56242;SDS011;42155;53.096;23.226;2023-09-30T03:46:28;18.42;;;10.98;;
56242;SDS011;42155;53.096;23.226;2023-09-30T03:48:28;16.75;;;10.68;;
56242;SDS011;42155;53.096;23.226;2023-09-30T03:50:28;19.67;;;11.38;;
56242;SDS011;42155;53.096;23.226;2023-09-30T03:52:29;18.05;;;10.63;;
56242;SDS011;42155;53.096;23.226;2023-09-30T03:54:30;18.35;;;11.68;;
56242;SDS011;42155;53.096;23.226;2023-09-30T03:56:31;20.98;;;11.88;;
56242;SDS011;42155;53.096;23.226;2023-09-30T03:58:31;17.85;;;11.30;;
56242;SDS011;42155;53.096;23.226;2023-09-30T04:00:32;22.73;;;12.05;;
56242;SDS011;42155;53.096;23.226;2023-09-30T04:02:33;17.50;;;10.70;;
56242;SDS011;42155;53.096;23.226;2023-09-30T04:04:33;16.40;;;11.13;;
56242;SDS011;42155;53.096;23.226;2023-09-30T04:06:34;18.58;;;11.30;;
56242;SDS011;42155;53.096;23.226;2023-09-30T04:08:34;20.92;;;11.02;;
56242;SDS011;42155;53.096;23.226;2023-09-30T04:10:35;17.70;;;11.65;;
56242;SDS011;42155;53.096;23.226;2023-09-30T04:12:35;18.52;;;11.43;;
56242;SDS011;42155;53.096;23.226;2023-09-30T04:14:36;18.08;;;11.23;;
56242;SDS011;42155;53.096;23.226;2023-09-30T04:16:37;20.45;;;11.32;;
56242;SDS011;42155;53.096;23.226;2023-09-30T04:18:38;19.90;;;11.55;;
56242;SDS011;42155;53.096;23.226;2023-09-30T04:20:38;21.00;;;11.70;;
56242;SDS011;42155;53.096;23.226;2023-09-30T04:22:39;20.45;;;11.60;;
56242;SDS011;42155;53.096;23.226;2023-09-30T04:24:39;17.85;;;10.75;;
56242;SDS011;42155;53.096;23.226;2023-09-30T04:26:39;17.45;;;10.30;;
56242;SDS011;42155;53.096;23.226;2023-09-30T04:28:39;17.95;;;11.23;;
56242;SDS011;42155;53.096;23.226;2023-09-30T04:30:40;16.88;;;10.90;;
56242;SDS011;42155;53.096;23.226;2023-09-30T04:32:44;17.58;;;11.00;;
56242;SDS011;42155;53.096;23.226;2023-09-30T04:34:44;21.60;;;11.40;;
56242;SDS011;42155;53.096;23.226;2023-09-30T04:36:45;18.13;;;11.02;;
56242;SDS011;42155;53.096;23.226;2023-09-30T04:38:45;17.75;;;10.82;;
56242;SDS011;42155;53.096;23.226;2023-09-30T04:40:45;18.30;;;10.15;;
56242;SDS011;42155;53.096;23.226;2023-09-30T04:42:46;17.48;;;10.82;;
56242;SDS011;42155;53.096;23.226;2023-09-30T04:44:46;20.15;;;11.43;;
56242;SDS011;42155;53.096;23.226;2023-09-30T04:46:46;22.00;;;11.38;;
56242;SDS011;42155;53.096;23.226;2023-09-30T04:48:47;18.67;;;11.50;;
56242;SDS011;42155;53.096;23.226;2023-09-30T04:50:47;21.70;;;11.75;;
56242;SDS011;42155;53.096;23.226;2023-09-30T04:52:48;20.60;;;10.77;;
56242;SDS011;42155;53.096;23.226;2023-09-30T04:54:48;19.50;;;10.73;;
56242;SDS011;42155;53.096;23.226;2023-09-30T04:56:52;19.23;;;11.30;;
56242;SDS011;42155;53.096;23.226;2023-09-30T04:58:52;18.40;;;11.45;;
56242;SDS011;42155;53.096;23.226;2023-09-30T05:00:52;16.85;;;10.80;;
56242;SDS011;42155;53.096;23.226;2023-09-30T05:02:54;18.40;;;10.85;;
56242;SDS011;42155;53.096;23.226;2023-09-30T05:04:55;19.92;;;10.90;;
56242;SDS011;42155;53.096;23.226;2023-09-30T05:06:55;21.25;;;11.25;;
56242;SDS011;42155;53.096;23.226;2023-09-30T05:08:56;27.55;;;11.75;;
56242;SDS011;42155;53.096;23.226;2023-09-30T05:10:56;18.77;;;11.05;;
56242;SDS011;42155;53.096;23.226;2023-09-30T05:12:57;23.17;;;11.38;;
56242;SDS011;42155;53.096;23.226;2023-09-30T05:14:57;17.77;;;11.27;;
56242;SDS011;42155;53.096;23.226;2023-09-30T05:16:57;19.55;;;12.15;;
56242;SDS011;42155;53.096;23.226;2023-09-30T05:18:58;22.92;;;10.82;;
56242;SDS011;42155;53.096;23.226;2023-09-30T05:20:58;18.70;;;10.98;;
56242;SDS011;42155;53.096;23.226;2023-09-30T05:22:58;19.33;;;11.38;;
56242;SDS011;42155;53.096;23.226;2023-09-30T05:24:59;22.13;;;10.98;;
56242;SDS011;42155;53.096;23.226;2023-09-30T05:26:59;20.77;;;11.73;;
56242;SDS011;42155;53.096;23.226;2023-09-30T05:28:59;24.20;;;11.93;;
56242;SDS011;42155;53.096;23.226;2023-09-30T05:31:00;23.77;;;11.23;;
56242;SDS011;42155;53.096;23.226;2023-09-30T05:33:00;18.70;;;11.05;;
56242;SDS011;42155;53.096;23.226;2023-09-30T05:35:01;19.35;;;11.15;;
56242;SDS011;42155;53.096;23.226;2023-09-30T05:37:01;24.05;;;10.88;;
56242;SDS011;42155;53.096;23.226;2023-09-30T05:39:02;23.50;;;11.52;;
56242;SDS011;42155;53.096;23.226;2023-09-30T05:41:02;17.50;;;11.25;;
56242;SDS011;42155;53.096;23.226;2023-09-30T05:43:02;19.90;;;10.82;;
56242;SDS011;42155;53.096;23.226;2023-09-30T05:45:03;15.85;;;10.82;;
56242;SDS011;42155;53.096;23.226;2023-09-30T05:47:04;16.92;;;10.10;;
56242;SDS011;42155;53.096;23.226;2023-09-30T05:49:04;16.70;;;11.38;;
56242;SDS011;42155;53.096;23.226;2023-09-30T05:51:04;16.60;;;10.70;;
56242;SDS011;42155;53.096;23.226;2023-09-30T05:53:05;17.63;;;11.35;;
56242;SDS011;42155;53.096;23.226;2023-09-30T05:55:05;18.65;;;11.55;;
56242;SDS011;42155;53.096;23.226;2023-09-30T05:57:06;18.42;;;10.38;;
56242;SDS011;42155;53.096;23.226;2023-09-30T05:59:06;18.70;;;11.05;;
56242;SDS011;42155;53.096;23.226;2023-09-30T06:01:10;20.90;;;11.23;;
56242;SDS011;42155;53.096;23.226;2023-09-30T06:03:10;20.08;;;11.07;;
56242;SDS011;42155;53.096;23.226;2023-09-30T06:05:10;20.05;;;11.00;;
56242;SDS011;42155;53.096;23.226;2023-09-30T06:07:11;24.08;;;11.35;;
56242;SDS011;42155;53.096;23.226;2023-09-30T06:09:12;21.35;;;11.77;;
56242;SDS011;42155;53.096;23.226;2023-09-30T06:13:19;19.35;;;11.35;;
56242;SDS011;42155;53.096;23.226;2023-09-30T06:15:19;17.58;;;10.85;;
56242;SDS011;42155;53.096;23.226;2023-09-30T06:17:20;17.48;;;10.13;;
56242;SDS011;42155;53.096;23.226;2023-09-30T06:19:20;21.27;;;10.35;;
56242;SDS011;42155;53.096;23.226;2023-09-30T06:21:21;20.00;;;11.27;;
56242;SDS011;42155;53.096;23.226;2023-09-30T06:23:21;19.35;;;10.70;;
56242;SDS011;42155;53.096;23.226;2023-09-30T06:25:22;18.42;;;10.90;;
56242;SDS011;42155;53.096;23.226;2023-09-30T06:27:22;22.67;;;11.38;;
56242;SDS011;42155;53.096;23.226;2023-09-30T06:29:23;17.75;;;10.88;;
56242;SDS011;42155;53.096;23.226;2023-09-30T06:31:23;19.15;;;11.52;;
56242;SDS011;42155;53.096;23.226;2023-09-30T06:33:25;18.70;;;11.35;;
56242;SDS011;42155;53.096;23.226;2023-09-30T06:35:25;21.27;;;11.18;;
56242;SDS011;42155;53.096;23.226;2023-09-30T06:37:26;21.88;;;11.40;;
56242;SDS011;42155;53.096;23.226;2023-09-30T06:39:27;19.02;;;11.18;;
56242;SDS011;42155;53.096;23.226;2023-09-30T06:41:27;18.27;;;11.10;;
56242;SDS011;42155;53.096;23.226;2023-09-30T06:43:27;21.05;;;11.23;;
56242;SDS011;42155;53.096;23.226;2023-09-30T06:45:28;23.27;;;12.23;;
56242;SDS011;42155;53.096;23.226;2023-09-30T06:47:28;26.58;;;11.55;;
56242;SDS011;42155;53.096;23.226;2023-09-30T06:49:28;16.27;;;10.18;;
56242;SDS011;42155;53.096;23.226;2023-09-30T06:51:28;16.95;;;11.35;;
56242;SDS011;42155;53.096;23.226;2023-09-30T06:53:29;19.30;;;11.45;;
56242;SDS011;42155;53.096;23.226;2023-09-30T06:55:29;22.55;;;11.73;;
56242;SDS011;42155;53.096;23.226;2023-09-30T06:57:33;20.52;;;10.82;;
56242;SDS011;42155;53.096;23.226;2023-09-30T06:59:35;16.77;;;10.52;;
56242;SDS011;42155;53.096;23.226;2023-09-30T07:01:35;18.17;;;10.20;;
56242;SDS011;42155;53.096;23.226;2023-09-30T07:03:35;19.42;;;10.55;;
56242;SDS011;42155;53.096;23.226;2023-09-30T07:05:36;17.77;;;9.73;;
56242;SDS011;42155;53.096;23.226;2023-09-30T07:07:37;17.60;;;9.90;;
56242;SDS011;42155;53.096;23.226;2023-09-30T07:09:37;22.13;;;10.60;;
56242;SDS011;42155;53.096;23.226;2023-09-30T07:11:37;18.90;;;10.85;;
56242;SDS011;42155;53.096;23.226;2023-09-30T07:13:37;17.40;;;10.35;;
56242;SDS011;42155;53.096;23.226;2023-09-30T07:15:38;21.80;;;10.57;;
56242;SDS011;42155;53.096;23.226;2023-09-30T07:17:38;19.40;;;10.77;;
56242;SDS011;42155;53.096;23.226;2023-09-30T07:19:39;20.42;;;11.63;;
56242;SDS011;42155;53.096;23.226;2023-09-30T07:21:39;16.55;;;9.90;;
56242;SDS011;42155;53.096;23.226;2023-09-30T07:23:41;21.58;;;10.88;;
56242;SDS011;42155;53.096;23.226;2023-09-30T07:25:42;18.83;;;10.43;;
56242;SDS011;42155;53.096;23.226;2023-09-30T07:27:43;18.35;;;10.13;;
56242;SDS011;42155;53.096;23.226;2023-09-30T07:29:44;17.55;;;10.57;;
56242;SDS011;42155;53.096;23.226;2023-09-30T07:31:44;23.08;;;10.43;;
56242;SDS011;42155;53.096;23.226;2023-09-30T07:33:44;21.38;;;10.35;;
56242;SDS011;42155;53.096;23.226;2023-09-30T07:35:45;18.35;;;10.20;;
56242;SDS011;42155;53.096;23.226;2023-09-30T07:37:45;20.58;;;10.68;;
56242;SDS011;42155;53.096;23.226;2023-09-30T07:39:46;18.95;;;10.55;;
56242;SDS011;42155;53.096;23.226;2023-09-30T07:41:46;25.27;;;10.10;;
56242;SDS011;42155;53.096;23.226;2023-09-30T07:43:46;23.80;;;10.50;;
56242;SDS011;42155;53.096;23.226;2023-09-30T07:45:47;20.27;;;10.45;;
56242;SDS011;42155;53.096;23.226;2023-09-30T07:47:47;22.45;;;9.88;;
56242;SDS011;42155;53.096;23.226;2023-09-30T07:49:47;19.08;;;10.55;;
56242;SDS011;42155;53.096;23.226;2023-09-30T07:51:48;18.55;;;10.43;;
56242;SDS011;42155;53.096;23.226;2023-09-30T07:53:48;18.08;;;10.20;;
56242;SDS011;42155;53.096;23.226;2023-09-30T07:55:48;19.58;;;10.85;;
56242;SDS011;42155;53.096;23.226;2023-09-30T07:57:49;16.90;;;10.52;;
56242;SDS011;42155;53.096;23.226;2023-09-30T07:59:49;16.88;;;9.68;;
56242;SDS011;42155;53.096;23.226;2023-09-30T08:01:50;15.57;;;10.18;;
56242;SDS011;42155;53.096;23.226;2023-09-30T08:03:50;18.85;;;10.60;;
56242;SDS011;42155;53.096;23.226;2023-09-30T08:05:50;16.13;;;10.23;;
56242;SDS011;42155;53.096;23.226;2023-09-30T08:07:51;18.20;;;10.63;;
56242;SDS011;42155;53.096;23.226;2023-09-30T08:09:51;17.00;;;10.30;;
56242;SDS011;42155;53.096;23.226;2023-09-30T08:11:54;17.40;;;10.63;;
56242;SDS011;42155;53.096;23.226;2023-09-30T08:13:54;19.15;;;10.98;;
56242;SDS011;42155;53.096;23.226;2023-09-30T08:15:55;23.00;;;11.07;;
56242;SDS011;42155;53.096;23.226;2023-09-30T08:17:55;16.63;;;10.73;;
56242;SDS011;42155;53.096;23.226;2023-09-30T08:19:55;17.58;;;10.52;;
56242;SDS011;42155;53.096;23.226;2023-09-30T08:21:56;21.10;;;11.55;;
56242;SDS011;42155;53.096;23.226;2023-09-30T08:23:57;20.10;;;10.80;;
56242;SDS011;42155;53.096;23.226;2023-09-30T08:25:58;15.90;;;10.85;;
56242;SDS011;42155;53.096;23.226;2023-09-30T08:27:58;16.38;;;10.93;;
56242;SDS011;42155;53.096;23.226;2023-09-30T08:29:59;20.13;;;11.68;;
56242;SDS011;42155;53.096;23.226;2023-09-30T08:31:59;17.42;;;10.90;;
56242;SDS011;42155;53.096;23.226;2023-09-30T08:33:59;17.33;;;10.30;;
56242;SDS011;42155;53.096;23.226;2023-09-30T08:36:03;21.33;;;11.57;;
56242;SDS011;42155;53.096;23.226;2023-09-30T08:38:03;23.33;;;11.25;;
56242;SDS011;42155;53.096;23.226;2023-09-30T08:40:04;18.42;;;10.48;;
56242;SDS011;42155;53.096;23.226;2023-09-30T08:42:06;19.35;;;10.90;;
56242;SDS011;42155;53.096;23.226;2023-09-30T08:44:10;21.67;;;10.82;;
56242;SDS011;42155;53.096;23.226;2023-09-30T08:46:11;20.30;;;10.90;;
56242;SDS011;42155;53.096;23.226;2023-09-30T08:48:11;16.15;;;10.73;;
56242;SDS011;42155;53.096;23.226;2023-09-30T08:50:12;18.02;;;11.68;;
56242;SDS011;42155;53.096;23.226;2023-09-30T08:52:13;17.23;;;11.10;;
56242;SDS011;42155;53.096;23.226;2023-09-30T08:54:14;25.52;;;11.57;;
56242;SDS011;42155;53.096;23.226;2023-09-30T08:56:15;21.45;;;11.95;;
56242;SDS011;42155;53.096;23.226;2023-09-30T08:58:16;17.83;;;11.68;;
56242;SDS011;42155;53.096;23.226;2023-09-30T09:00:17;22.52;;;11.68;;
56242;SDS011;42155;53.096;23.226;2023-09-30T09:02:19;23.55;;;12.18;;
56242;SDS011;42155;53.096;23.226;2023-09-30T09:04:20;24.50;;;11.50;;
56242;SDS011;42155;53.096;23.226;2023-09-30T09:06:21;19.80;;;12.30;;
56242;SDS011;42155;53.096;23.226;2023-09-30T09:08:25;23.92;;;11.27;;
56242;SDS011;42155;53.096;23.226;2023-09-30T09:10:26;18.63;;;12.10;;
56242;SDS011;42155;53.096;23.226;2023-09-30T09:12:26;20.23;;;12.02;;
56242;SDS011;42155;53.096;23.226;2023-09-30T09:14:39;22.77;;;11.75;;
56242;SDS011;42155;53.096;23.226;2023-09-30T09:16:50;21.02;;;11.85;;
56242;SDS011;42155;53.096;23.226;2023-09-30T09:18:54;19.17;;;11.52;;
56242;SDS011;42155;53.096;23.226;2023-09-30T09:21:04;18.25;;;12.13;;
56242;SDS011;42155;53.096;23.226;2023-09-30T09:23:17;20.10;;;11.70;;
56242;SDS011;42155;53.096;23.226;2023-09-30T09:25:18;20.83;;;11.45;;
56242;SDS011;42155;53.096;23.226;2023-09-30T09:27:18;17.33;;;11.80;;
56242;SDS011;42155;53.096;23.226;2023-09-30T09:29:18;25.77;;;12.75;;
56242;SDS011;42155;53.096;23.226;2023-09-30T09:31:28;20.15;;;12.02;;
56242;SDS011;42155;53.096;23.226;2023-09-30T09:33:34;20.75;;;11.98;;
56242;SDS011;42155;53.096;23.226;2023-09-30T09:35:35;19.92;;;12.52;;
56242;SDS011;42155;53.096;23.226;2023-09-30T09:37:36;16.60;;;11.68;;
56242;SDS011;42155;53.096;23.226;2023-09-30T09:39:36;19.80;;;11.60;;
56242;SDS011;42155;53.096;23.226;2023-09-30T09:41:49;19.30;;;11.43;;
56242;SDS011;42155;53.096;23.226;2023-09-30T09:43:50;16.25;;;11.07;;
56242;SDS011;42155;53.096;23.226;2023-09-30T09:45:51;18.08;;;11.38;;
56242;SDS011;42155;53.096;23.226;2023-09-30T09:47:52;22.63;;;12.27;;
56242;SDS011;42155;53.096;23.226;2023-09-30T09:49:54;18.90;;;12.02;;
56242;SDS011;42155;53.096;23.226;2023-09-30T09:51:57;22.20;;;12.15;;
56242;SDS011;42155;53.096;23.226;2023-09-30T09:53:58;19.85;;;11.60;;
56242;SDS011;42155;53.096;23.226;2023-09-30T09:55:59;20.98;;;12.00;;
56242;SDS011;42155;53.096;23.226;2023-09-30T09:58:00;19.70;;;11.93;;
56242;SDS011;42155;53.096;23.226;2023-09-30T10:00:02;19.30;;;11.90;;
56242;SDS011;42155;53.096;23.226;2023-09-30T10:02:04;16.83;;;11.38;;
56242;SDS011;42155;53.096;23.226;2023-09-30T10:04:10;19.58;;;12.73;;
56242;SDS011;42155;53.096;23.226;2023-09-30T10:06:11;16.85;;;11.73;;
56242;SDS011;42155;53.096;23.226;2023-09-30T10:08:14;20.25;;;11.95;;
56242;SDS011;42155;53.096;23.226;2023-09-30T10:10:17;19.88;;;12.93;;
56242;SDS011;42155;53.096;23.226;2023-09-30T10:12:19;22.15;;;13.32;;
56242;SDS011;42155;53.096;23.226;2023-09-30T10:14:32;20.80;;;13.05;;
56242;SDS011;42155;53.096;23.226;2023-09-30T10:19:01;21.60;;;14.00;;
56242;SDS011;42155;53.096;23.226;2023-09-30T10:21:11;21.38;;;14.00;;
56242;SDS011;42155;53.096;23.226;2023-09-30T10:25:52;23.67;;;14.85;;
56242;SDS011;42155;53.096;23.226;2023-09-30T10:27:46;22.40;;;14.18;;
56242;SDS011;42155;53.096;23.226;2023-09-30T10:29:46;22.80;;;14.75;;
56242;SDS011;42155;53.096;23.226;2023-09-30T10:31:49;21.17;;;14.65;;
56242;SDS011;42155;53.096;23.226;2023-09-30T10:35:59;25.30;;;15.43;;
56242;SDS011;42155;53.096;23.226;2023-09-30T10:40:29;20.42;;;13.70;;
56242;SDS011;42155;53.096;23.226;2023-09-30T10:42:45;23.13;;;14.93;;
56242;SDS011;42155;53.096;23.226;2023-09-30T10:44:49;20.95;;;13.85;;
56242;SDS011;42155;53.096;23.226;2023-09-30T10:46:49;21.23;;;13.93;;
56242;SDS011;42155;53.096;23.226;2023-09-30T10:48:50;27.10;;;14.82;;
56242;SDS011;42155;53.096;23.226;2023-09-30T10:50:54;22.20;;;14.75;;
56242;SDS011;42155;53.096;23.226;2023-09-30T10:53:00;22.70;;;14.55;;
56242;SDS011;42155;53.096;23.226;2023-09-30T10:55:04;24.67;;;14.25;;
56242;SDS011;42155;53.096;23.226;2023-09-30T10:57:04;23.58;;;14.65;;
56242;SDS011;42155;53.096;23.226;2023-09-30T10:59:05;21.48;;;14.27;;
56242;SDS011;42155;53.096;23.226;2023-09-30T11:01:05;29.25;;;15.05;;
56242;SDS011;42155;53.096;23.226;2023-09-30T11:03:05;20.83;;;14.50;;
56242;SDS011;42155;53.096;23.226;2023-09-30T11:05:09;23.55;;;15.10;;
56242;SDS011;42155;53.096;23.226;2023-09-30T11:07:10;25.25;;;15.10;;
56242;SDS011;42155;53.096;23.226;2023-09-30T11:09:14;21.98;;;15.65;;
56242;SDS011;42155;53.096;23.226;2023-09-30T11:11:16;25.80;;;15.57;;
56242;SDS011;42155;53.096;23.226;2023-09-30T11:13:17;22.42;;;14.57;;
56242;SDS011;42155;53.096;23.226;2023-09-30T11:15:17;22.98;;;15.13;;
56242;SDS011;42155;53.096;23.226;2023-09-30T11:17:18;24.17;;;15.65;;
56242;SDS011;42155;53.096;23.226;2023-09-30T11:19:22;26.92;;;16.35;;
56242;SDS011;42155;53.096;23.226;2023-09-30T11:21:23;25.08;;;15.73;;
56242;SDS011;42155;53.096;23.226;2023-09-30T11:23:23;22.92;;;15.05;;
56242;SDS011;42155;53.096;23.226;2023-09-30T11:25:24;26.48;;;15.68;;
56242;SDS011;42155;53.096;23.226;2023-09-30T11:27:24;22.10;;;15.05;;
56242;SDS011;42155;53.096;23.226;2023-09-30T11:29:24;24.58;;;16.30;;
56242;SDS011;42155;53.096;23.226;2023-09-30T11:31:25;24.48;;;16.67;;
56242;SDS011;42155;53.096;23.226;2023-09-30T11:33:28;22.35;;;15.82;;
56242;SDS011;42155;53.096;23.226;2023-09-30T11:35:29;23.52;;;15.73;;
56242;SDS011;42155;53.096;23.226;2023-09-30T11:37:32;23.85;;;16.35;;
56242;SDS011;42155;53.096;23.226;2023-09-30T11:39:33;26.27;;;17.02;;
56242;SDS011;42155;53.096;23.226;2023-09-30T11:41:34;26.65;;;16.83;;
56242;SDS011;42155;53.096;23.226;2023-09-30T11:43:36;26.58;;;16.42;;
56242;SDS011;42155;53.096;23.226;2023-09-30T11:45:36;24.10;;;16.38;;
56242;SDS011;42155;53.096;23.226;2023-09-30T11:47:37;22.38;;;16.42;;
56242;SDS011;42155;53.096;23.226;2023-09-30T11:49:38;24.25;;;15.63;;